EGHQEGFF

Guest
Details From EGHQ - Newquay
To EGFF - Cardiff
Flight Number -
Tags generated
Created
Modified
Stats Distance 86 nm / 159 km
Max Altitude 2,600 ft / 792 m
Waypoints 3
Social Downloads 3
Likes 0
Share VATSIM

Download

Looking for another format? Having issues loading an existing format? Contact us
Advertisement - Login to hide

Notes

Basic altitude profile: - Ascent Rate: 2500ft/min - Ascent Speed: 250kts - Cruise Altitude: 35000ft - Cruise Speed: 420kts - Descent Rate: 1500ft/min - Descent Speed: 250kts Options: - Use NATs: yes - Use PACOTS: yes - Use low airways: yes - Use high airways: yes

Route

EGHQ KESUP EGFF

ID Type Via Altitude Latitude Longitude Leg Dist Tot Dist Heading (true) Name
O EGHQ APT - 0 ft / 0 m 50.44076˚ -4.99533˚ - 0 nm - Newquay
KESUP FIX - 2,600 ft / 792 m 51.32556˚ -3.65472˚ 73 nm 73 nm 43° / 44° -
O EGFF APT - 0 ft / 0 m 51.39656˚ -3.34320˚ 12 nm 85 nm 70° / 70° Cardiff

Altitude Profile

Advertisement - Login to hide

EGHQ

Details ICAO EGHQ
Name Newquay
Region United Kingdom
Timezone Europe/London (UTC+0.0)
Stats Elevation 389 ft / 119 m (AMSL)
Location 50.440759° -4.995334°
Runways 1
Magnetic Variation 2.046° W

METAR

EGHQ 131820Z 28030G40KT 9999 SCT012 SCT030CB 06/04 Q0996

Decode

TAF

Not found

Departure Runways

ID Width Length Bearing (true) Bearing (mag) Surface Threshold Offset Overrun Length
12 148 ft / 45 m 9,006 ft / 2,745 m 120.58° 122.63° Asphalt 0 ft / 0 m 0 ft / 0 m
30 148 ft / 45 m 9,006 ft / 2,745 m 300.60° 302.65° Asphalt 1,014 ft / 309 m 0 ft / 0 m

EGFF

Details ICAO EGFF (CWL)
Name Cardiff
Region United Kingdom
Timezone Europe/London (UTC+0.0)
Stats Elevation 220 ft / 67 m (AMSL)
Location 51.396565° -3.343202°
Runways 1
Magnetic Variation 1.579° W

METAR

EGFF 131820Z 29020G31KT 7000 SHRA FEW010 SCT018CB BKN024 04/03 Q0992 RESHRA

Decode

TAF

TAF AMD EGFF 131846Z 1318/1418 29010KT 9999 SCT020 TEMPO 1318/1418 29024G38KT 6000 SHRA BKN010 PROB40 TEMPO 1318/1324 29035G48KT PROB30 TEMPO 1318/1418 2000 +TSRAGS BKN005 BKN020CB

Decode

Destination Runways

ID Width Length Bearing (true) Bearing (mag) Surface Threshold Offset Overrun Length
12 131 ft / 40 m 7,831 ft / 2,387 m 116.82° 118.40° Asphalt 715 ft / 218 m 0 ft / 0 m
30 131 ft / 40 m 7,831 ft / 2,387 m 296.84° 298.42° Asphalt 594 ft / 181 m 0 ft / 0 m

Approach Navaids

Runway Type Ident Frequency Range Bearing (true) Bearing (mag) Slope Elevation
12 Localiser ICDF 110.70 MHz 18 nm / 33 km 116.85° 118.43° - 220 ft / 67 m (AMSL)
12 Glidescope ICDF 110.70 MHz 10 nm / 19 km 116.83° 118.41° 3.00° 220 ft / 67 m (AMSL)
12 DME ICDF 110.70 MHz 18 nm / 33 km - - - 281 ft / 86 m (AMSL)
30 Localiser ICWA 110.70 MHz 18 nm / 33 km 296.82° 298.40° - 220 ft / 67 m (AMSL)
30 Glidescope ICWA 110.70 MHz 10 nm / 19 km 296.83° 298.41° 3.00° 220 ft / 67 m (AMSL)
30 DME ICWA 110.70 MHz 18 nm / 33 km - - - 220 ft / 67 m (AMSL)

Popular Alternatives